Time,TemperatureF,DewpointF,PressureIn,WindDirection,WindDirectionDegrees,WindSpeedMPH,WindSpeedGustMPH,Humidity,HourlyPrecipIn,Conditions,Clouds,dailyrainin,SoftwareType,DateUTC
2013-09-18 00:03:00,52.1,50.0,30.30,NNE,13,0.0,2.0,92,0.00,,,0.00,weatherlink.com 1.10,2013-09-18 04:03:00,
2013-09-18 00:18:00,51.8,50.0,30.30,NNE,13,0.0,0.0,93,0.00,,,0.00,weatherlink.com 1.10,2013-09-18 04:18:00,
2013-09-18 00:33:00,51.4,50.0,30.30,NNE,13,0.0,0.0,93,0.00,,,0.00,weatherlink.com 1.10,2013-09-18 04:33:00,
2013-09-18 00:48:00,51.1,49.0,30.30,NNE,13,0.0,0.0,93,0.00,,,0.00,weatherlink.com 1.10,2013-09-18 04:48:00,
2013-09-18 01:03:00,50.6,49.0,30.30,NNE,13,0.0,0.0,93,0.00,,,0.00,weatherlink.com 1.10,2013-09-18 05:03:00,
2013-09-18 01:18:00,50.3,49.0,30.30,NNE,13,0.0,0.0,94,0.00,,,0.00,weatherlink.com 1.10,2013-09-18 05:18:00,
2013-09-18 01:33:00,49.8,48.0,30.30,NNE,13,0.0,0.0,94,0.00,,,0.00,weatherlink.com 1.10,2013-09-18 05:33:00,
2013-09-18 01:48:00,49.6,48.0,30.31,NNE,13,0.0,0.0,94,0.00,,,0.00,weatherlink.com 1.10,2013-09-18 05:48:00,
2013-09-18 02:03:00,49.6,48.0,30.31,NNE,13,0.0,0.0,95,0.00,,,0.00,weatherlink.com 1.10,2013-09-18 06:03:00,
2013-09-18 02:18:00,49.5,48.0,30.31,NNE,13,0.0,0.0,95,0.00,,,0.00,weatherlink.com 1.10,2013-09-18 06:18:00,
2013-09-18 02:33:00,49.4,48.0,30.30,NNE,13,0.0,0.0,95,0.00,,,0.00,weatherlink.com 1.10,2013-09-18 06:33:00,
2013-09-18 02:48:00,49.3,48.0,30.30,NNE,13,0.0,0.0,95,0.00,,,0.00,weatherlink.com 1.10,2013-09-18 06:48:00,
2013-09-18 03:03:00,49.1,48.0,30.30,NNE,13,0.0,0.0,95,0.00,,,0.00,weatherlink.com 1.10,2013-09-18 07:03:00,
2013-09-18 03:18:00,49.1,48.0,30.30,NNE,13,0.0,0.0,95,0.00,,,0.00,weatherlink.com 1.10,2013-09-18 07:18:00,
2013-09-18 03:33:00,49.0,48.0,30.30,NNE,13,0.0,0.0,95,0.00,,,0.00,weatherlink.com 1.10,2013-09-18 07:33:00,
2013-09-18 03:48:00,49.3,48.0,30.30,NNE,13,0.0,0.0,96,0.00,,,0.00,weatherlink.com 1.10,2013-09-18 07:48:00,
2013-09-18 04:03:00,49.7,49.0,30.30,NNE,13,0.0,0.0,96,0.00,,,0.00,weatherlink.com 1.10,2013-09-18 08:03:00,
2013-09-18 04:18:00,50.4,49.0,30.30,NNE,13,0.0,0.0,96,0.00,,,0.00,weatherlink.com 1.10,2013-09-18 08:18:00,
2013-09-18 04:33:00,50.8,50.0,30.29,NNE,13,0.0,0.0,96,0.00,,,0.00,weatherlink.com 1.10,2013-09-18 08:33:00,
2013-09-18 04:48:00,50.9,50.0,30.29,NNE,13,0.0,0.0,96,0.00,,,0.00,weatherlink.com 1.10,2013-09-18 08:48:00,
2013-09-18 05:03:00,51.1,50.0,30.28,WNW,284,0.0,2.0,96,0.00,,,0.00,weatherlink.com 1.10,2013-09-18 09:03:00,
2013-09-18 05:18:00,51.4,50.0,30.28,North,9,0.0,1.0,96,0.00,,,0.00,weatherlink.com 1.10,2013-09-18 09:18:00,
2013-09-18 05:33:00,51.7,50.0,30.29,North,9,0.0,0.0,95,0.00,,,0.00,weatherlink.com 1.10,2013-09-18 09:33:00,
2013-09-18 05:48:00,51.6,50.0,30.29,North,9,0.0,1.0,95,0.00,,,0.00,weatherlink.com 1.10,2013-09-18 09:48:00,
2013-09-18 06:03:00,51.5,50.0,30.30,North,9,0.0,0.0,94,0.00,,,0.00,weatherlink.com 1.10,2013-09-18 10:03:00,
2013-09-18 06:18:00,51.5,50.0,30.30,North,9,0.0,1.0,94,0.00,,,0.00,weatherlink.com 1.10,2013-09-18 10:18:00,
2013-09-18 06:33:00,51.5,50.0,30.30,North,9,0.0,1.0,94,0.00,,,0.00,weatherlink.com 1.10,2013-09-18 10:33:00,
2013-09-18 06:48:00,51.4,50.0,30.30,North,9,0.0,0.0,94,0.00,,,0.00,weatherlink.com 1.10,2013-09-18 10:48:00,
2013-09-18 07:03:00,51.3,50.0,30.31,North,9,0.0,0.0,94,0.00,,,0.00,weatherlink.com 1.10,2013-09-18 11:03:00,
2013-09-18 07:18:00,51.1,50.0,30.31,North,9,0.0,0.0,94,0.00,,,0.00,weatherlink.com 1.10,2013-09-18 11:18:00,
2013-09-18 07:33:00,51.0,50.0,30.31,North,9,0.0,0.0,95,0.00,,,0.00,weatherlink.com 1.10,2013-09-18 11:33:00,
2013-09-18 07:48:00,50.9,50.0,30.31,North,9,0.0,0.0,95,0.00,,,0.00,weatherlink.com 1.10,2013-09-18 11:48:00,
2013-09-18 08:03:00,50.7,49.0,30.32,North,9,0.0,0.0,95,0.00,,,0.00,weatherlink.com 1.10,2013-09-18 12:03:00,
2013-09-18 08:18:00,50.9,50.0,30.32,North,9,0.0,0.0,95,0.00,,,0.00,weatherlink.com 1.10,2013-09-18 12:18:00,
2013-09-18 08:33:00,51.3,50.0,30.32,North,9,0.0,0.0,95,0.00,,,0.00,weatherlink.com 1.10,2013-09-18 12:33:00,
2013-09-18 08:48:00,52.3,51.0,30.32,North,9,0.0,2.0,96,0.00,,,0.00,weatherlink.com 1.10,2013-09-18 12:48:00,
2013-09-18 09:03:00,53.7,52.0,30.32,East,94,0.0,2.0,95,0.00,,,0.00,weatherlink.com 1.10,2013-09-18 13:03:00,
2013-09-18 09:18:00,55.3,52.0,30.33,ESE,121,0.0,2.0,88,0.00,,,0.00,weatherlink.com 1.10,2013-09-18 13:18:00,
2013-09-18 09:34:00,57.0,54.0,30.33,NNE,26,0.0,5.0,88,0.00,,,0.00,weatherlink.com 1.10,2013-09-18 13:34:00,
2013-09-18 09:48:00,58.0,53.0,30.33,North,350,0.0,3.0,82,0.00,,,0.00,weatherlink.com 1.10,2013-09-18 13:48:00,
2013-09-18 10:03:00,58.8,53.0,30.32,SSE,155,0.0,3.0,80,0.00,,,0.00,weatherlink.com 1.10,2013-09-18 14:03:00,
2013-09-18 10:18:00,59.9,52.0,30.33,East,79,1.0,3.0,75,0.00,,,0.00,weatherlink.com 1.10,2013-09-18 14:18:00,
2013-09-18 10:33:00,61.1,52.0,30.32,North,5,4.0,5.0,71,0.00,,,0.00,weatherlink.com 1.10,2013-09-18 14:33:00,
2013-09-18 10:49:00,64.1,53.0,30.32,SSW,198,0.0,3.0,67,0.00,,,0.00,weatherlink.com 1.10,2013-09-18 14:49:00,
2013-09-18 11:03:00,65.8,53.0,30.32,South,186,1.0,4.0,64,0.00,,,0.00,weatherlink.com 1.10,2013-09-18 15:03:00,
2013-09-18 11:19:00,65.4,53.0,30.31,North,355,0.0,3.0,64,0.00,,,0.00,weatherlink.com 1.10,2013-09-18 15:19:00,
2013-09-18 11:34:00,66.3,52.0,30.31,NNW,347,0.0,3.0,61,0.00,,,0.00,weatherlink.com 1.10,2013-09-18 15:34:00,
2013-09-18 11:49:00,67.0,52.0,30.30,WSW,244,1.0,3.0,60,0.00,,,0.00,weatherlink.com 1.10,2013-09-18 15:49:00,
2013-09-18 12:04:00,66.6,52.0,30.30,SSW,206,1.0,3.0,59,0.00,,,0.00,weatherlink.com 1.10,2013-09-18 16:04:00,
2013-09-18 12:19:00,66.9,52.0,30.29,SW,215,0.0,4.0,60,0.00,,,0.00,weatherlink.com 1.10,2013-09-18 16:19:00,
2013-09-18 12:34:00,66.8,52.0,30.29,East,82,1.0,6.0,60,0.00,,,0.00,weatherlink.com 1.10,2013-09-18 16:34:00,
2013-09-18 12:49:00,66.7,53.0,30.28,NE,53,0.0,3.0,61,0.00,,,0.00,weatherlink.com 1.10,2013-09-18 16:49:00,
2013-09-18 13:04:00,67.3,54.0,30.28,North,5,2.0,4.0,62,0.00,,,0.00,weatherlink.com 1.10,2013-09-18 17:04:00,
2013-09-18 13:19:00,67.6,53.0,30.27,NNE,32,1.0,4.0,59,0.00,,,0.00,weatherlink.com 1.10,2013-09-18 17:19:00,
2013-09-18 13:34:00,69.5,53.0,30.26,SSW,205,1.0,4.0,57,0.00,,,0.00,weatherlink.com 1.10,2013-09-18 17:34:00,
2013-09-18 13:49:00,69.5,54.0,30.26,WSW,249,1.0,5.0,58,0.00,,,0.00,weatherlink.com 1.10,2013-09-18 17:49:00,
2013-09-18 14:04:00,70.5,53.0,30.25,NNE,29,1.0,4.0,55,0.00,,,0.00,weatherlink.com 1.10,2013-09-18 18:04:00,
2013-09-18 14:19:00,70.4,55.0,30.25,NW,313,0.0,4.0,59,0.00,,,0.00,weatherlink.com 1.10,2013-09-18 18:19:00,
2013-09-18 14:34:00,70.3,54.0,30.24,NNE,15,1.0,4.0,57,0.00,,,0.00,weatherlink.com 1.10,2013-09-18 18:34:00,
2013-09-18 14:49:00,70.6,55.0,30.23,SSW,200,0.0,6.0,59,0.00,,,0.00,weatherlink.com 1.10,2013-09-18 18:49:00,
2013-09-18 15:04:00,72.1,55.0,30.22,SSE,156,1.0,3.0,55,0.00,,,0.00,weatherlink.com 1.10,2013-09-18 19:04:00,
2013-09-18 15:19:00,73.3,56.0,30.22,South,185,2.0,4.0,55,0.00,,,0.00,weatherlink.com 1.10,2013-09-18 19:19:00,
2013-09-18 15:34:00,73.4,55.0,30.21,SW,234,1.0,3.0,53,0.00,,,0.00,weatherlink.com 1.10,2013-09-18 19:34:00,
2013-09-18 15:49:00,74.4,56.0,30.21,SSE,168,1.0,4.0,52,0.00,,,0.00,weatherlink.com 1.10,2013-09-18 19:49:00,
2013-09-18 16:04:00,73.9,56.0,30.21,NE,56,1.0,4.0,53,0.00,,,0.00,weatherlink.com 1.10,2013-09-18 20:04:00,
2013-09-18 16:34:00,72.2,54.0,30.20,NNW,345,1.0,2.0,54,0.00,,,0.00,weatherlink.com 1.10,2013-09-18 20:34:00,
2013-09-18 16:49:00,72.6,56.0,30.20,North,5,2.0,3.0,57,0.00,,,0.00,weatherlink.com 1.10,2013-09-18 20:49:00,
2013-09-18 17:04:00,71.3,57.0,30.20,North,11,0.0,1.0,61,0.00,,,0.00,weatherlink.com 1.10,2013-09-18 21:04:00,
2013-09-18 17:19:00,70.7,56.0,30.19,NNE,31,0.0,2.0,61,0.00,,,0.00,weatherlink.com 1.10,2013-09-18 21:19:00,
2013-09-18 17:34:00,70.0,58.0,30.18,ENE,65,0.0,1.0,65,0.00,,,0.00,weatherlink.com 1.10,2013-09-18 21:34:00,
2013-09-18 17:49:00,68.4,58.0,30.19,ENE,65,0.0,1.0,69,0.00,,,0.00,weatherlink.com 1.10,2013-09-18 21:49:00,
2013-09-18 18:05:00,67.6,59.0,30.19,ENE,65,0.0,1.0,73,0.00,,,0.00,weatherlink.com 1.10,2013-09-18 22:05:00,
2013-09-18 18:19:00,66.9,59.0,30.19,ENE,65,0.0,1.0,75,0.00,,,0.00,weatherlink.com 1.10,2013-09-18 22:19:00,
2013-09-18 18:34:00,66.2,59.0,30.19,ENE,65,0.0,1.0,77,0.00,,,0.00,weatherlink.com 1.10,2013-09-18 22:34:00,
2013-09-18 18:49:00,65.5,59.0,30.19,ENE,65,0.0,1.0,80,0.00,,,0.00,weatherlink.com 1.10,2013-09-18 22:49:00,
2013-09-18 19:04:00,64.6,59.0,30.19,ENE,65,0.0,0.0,82,0.00,,,0.00,weatherlink.com 1.10,2013-09-18 23:04:00,
2013-09-18 19:19:00,63.6,59.0,30.19,ENE,65,0.0,0.0,84,0.00,,,0.00,weatherlink.com 1.10,2013-09-18 23:19:00,
2013-09-18 19:49:00,62.3,58.0,30.19,ENE,65,0.0,0.0,86,0.00,,,0.00,weatherlink.com 1.10,2013-09-18 23:49:00,
2013-09-18 20:05:00,62.0,58.0,30.19,ENE,65,0.0,1.0,87,0.00,,,0.00,weatherlink.com 1.10,2013-09-19 00:05:00,
2013-09-18 20:20:00,61.8,58.0,30.19,ENE,65,0.0,0.0,86,0.00,,,0.00,weatherlink.com 1.10,2013-09-19 00:20:00,
2013-09-18 20:35:00,61.7,58.0,30.19,ENE,65,0.0,0.0,86,0.00,,,0.00,weatherlink.com 1.10,2013-09-19 00:35:00,
2013-09-18 20:50:00,61.6,58.0,30.20,ENE,65,0.0,0.0,87,0.00,,,0.00,weatherlink.com 1.10,2013-09-19 00:50:00,
2013-09-18 21:05:00,61.4,58.0,30.20,ENE,65,0.0,0.0,88,0.00,,,0.00,weatherlink.com 1.10,2013-09-19 01:05:00,
2013-09-18 21:20:00,61.3,58.0,30.20,ENE,65,0.0,0.0,88,0.00,,,0.00,weatherlink.com 1.10,2013-09-19 01:20:00,
2013-09-18 21:35:00,61.1,58.0,30.20,ENE,65,0.0,0.0,88,0.00,,,0.00,weatherlink.com 1.10,2013-09-19 01:35:00,
2013-09-18 21:50:00,60.8,57.0,30.20,ENE,65,0.0,0.0,88,0.00,,,0.00,weatherlink.com 1.10,2013-09-19 01:50:00,
2013-09-18 22:05:00,60.3,57.0,30.19,ENE,65,0.0,1.0,88,0.00,,,0.00,weatherlink.com 1.10,2013-09-19 02:05:00,
2013-09-18 22:20:00,59.9,57.0,30.20,ENE,65,0.0,0.0,89,0.00,,,0.00,weatherlink.com 1.10,2013-09-19 02:20:00,
2013-09-18 22:35:00,59.7,57.0,30.20,ENE,65,0.0,0.0,90,0.00,,,0.00,weatherlink.com 1.10,2013-09-19 02:35:00,
2013-09-18 22:50:00,59.4,57.0,30.20,ENE,65,0.0,0.0,91,0.00,,,0.00,weatherlink.com 1.10,2013-09-19 02:50:00,
2013-09-18 23:05:00,59.3,57.0,30.19,ENE,65,0.0,0.0,92,0.00,,,0.00,weatherlink.com 1.10,2013-09-19 03:05:00,
2013-09-18 23:20:00,59.3,57.0,30.20,ENE,65,0.0,0.0,92,0.00,,,0.00,weatherlink.com 1.10,2013-09-19 03:20:00,
2013-09-18 23:35:00,59.3,57.0,30.20,ENE,65,0.0,0.0,93,0.00,,,0.00,weatherlink.com 1.10,2013-09-19 03:35:00,
2013-09-18 23:50:00,59.6,58.0,30.20,ENE,65,0.0,0.0,93,0.00,,,0.00,weatherlink.com 1.10,2013-09-19 03:50:00,